sensor_id;sensor_type;location;lat;lon;timestamp;P1;durP1;ratioP1;P2;durP2;ratioP2
33826;SDS011;20128;45.582;5.298;2022-10-31T00:03:49;33.00;;;9.50;;
33826;SDS011;20128;45.582;5.298;2022-10-31T00:06:15;25.40;;;8.70;;
33826;SDS011;20128;45.582;5.298;2022-10-31T00:08:43;27.42;;;9.30;;
33826;SDS011;20128;45.582;5.298;2022-10-31T00:11:12;24.30;;;9.15;;
33826;SDS011;20128;45.582;5.298;2022-10-31T00:13:38;27.45;;;9.38;;
33826;SDS011;20128;45.582;5.298;2022-10-31T00:16:04;32.38;;;9.55;;
33826;SDS011;20128;45.582;5.298;2022-10-31T00:18:30;38.42;;;10.18;;
33826;SDS011;20128;45.582;5.298;2022-10-31T00:21:02;30.45;;;8.85;;
33826;SDS011;20128;45.582;5.298;2022-10-31T00:23:28;32.85;;;8.70;;
33826;SDS011;20128;45.582;5.298;2022-10-31T00:25:54;30.30;;;9.43;;
33826;SDS011;20128;45.582;5.298;2022-10-31T00:28:24;30.77;;;9.80;;
33826;SDS011;20128;45.582;5.298;2022-10-31T00:30:50;33.95;;;10.50;;
33826;SDS011;20128;45.582;5.298;2022-10-31T00:33:15;32.00;;;9.88;;
33826;SDS011;20128;45.582;5.298;2022-10-31T00:35:41;26.30;;;8.80;;
33826;SDS011;20128;45.582;5.298;2022-10-31T00:38:07;38.13;;;9.23;;
33826;SDS011;20128;45.582;5.298;2022-10-31T00:40:32;29.88;;;8.77;;
33826;SDS011;20128;45.582;5.298;2022-10-31T00:42:58;18.15;;;8.93;;
33826;SDS011;20128;45.582;5.298;2022-10-31T00:45:23;27.20;;;9.23;;
33826;SDS011;20128;45.582;5.298;2022-10-31T00:47:49;33.42;;;9.25;;
33826;SDS011;20128;45.582;5.298;2022-10-31T00:50:15;35.80;;;8.88;;
33826;SDS011;20128;45.582;5.298;2022-10-31T00:52:41;34.83;;;8.27;;
33826;SDS011;20128;45.582;5.298;2022-10-31T00:55:06;29.92;;;9.57;;
33826;SDS011;20128;45.582;5.298;2022-10-31T00:57:32;33.08;;;8.45;;
33826;SDS011;20128;45.582;5.298;2022-10-31T00:59:58;22.45;;;8.77;;
33826;SDS011;20128;45.582;5.298;2022-10-31T01:02:23;25.60;;;9.23;;
33826;SDS011;20128;45.582;5.298;2022-10-31T01:04:49;21.15;;;9.23;;
33826;SDS011;20128;45.582;5.298;2022-10-31T01:07:14;29.27;;;9.52;;
33826;SDS011;20128;45.582;5.298;2022-10-31T01:09:40;24.13;;;8.32;;
33826;SDS011;20128;45.582;5.298;2022-10-31T01:12:06;27.70;;;9.73;;
33826;SDS011;20128;45.582;5.298;2022-10-31T01:14:32;31.83;;;9.50;;
33826;SDS011;20128;45.582;5.298;2022-10-31T01:16:57;23.52;;;9.32;;
33826;SDS011;20128;45.582;5.298;2022-10-31T01:19:23;29.50;;;9.10;;
33826;SDS011;20128;45.582;5.298;2022-10-31T01:21:49;20.48;;;8.25;;
33826;SDS011;20128;45.582;5.298;2022-10-31T01:24:14;32.97;;;9.82;;
33826;SDS011;20128;45.582;5.298;2022-10-31T01:26:40;24.95;;;9.20;;
33826;SDS011;20128;45.582;5.298;2022-10-31T01:29:07;32.03;;;9.60;;
33826;SDS011;20128;45.582;5.298;2022-10-31T01:31:34;29.30;;;9.55;;
33826;SDS011;20128;45.582;5.298;2022-10-31T01:34:02;28.27;;;8.98;;
33826;SDS011;20128;45.582;5.298;2022-10-31T01:36:37;28.85;;;9.07;;
33826;SDS011;20128;45.582;5.298;2022-10-31T01:39:04;25.42;;;9.30;;
33826;SDS011;20128;45.582;5.298;2022-10-31T01:41:33;36.95;;;8.35;;
33826;SDS011;20128;45.582;5.298;2022-10-31T01:44:02;39.45;;;9.88;;
33826;SDS011;20128;45.582;5.298;2022-10-31T01:46:52;26.02;;;9.18;;
33826;SDS011;20128;45.582;5.298;2022-10-31T01:49:28;36.80;;;9.70;;
33826;SDS011;20128;45.582;5.298;2022-10-31T01:52:11;25.30;;;9.07;;
33826;SDS011;20128;45.582;5.298;2022-10-31T01:55:05;27.23;;;8.93;;
33826;SDS011;20128;45.582;5.298;2022-10-31T01:57:32;27.23;;;9.00;;
33826;SDS011;20128;45.582;5.298;2022-10-31T02:00:00;24.52;;;8.77;;
33826;SDS011;20128;45.582;5.298;2022-10-31T02:02:32;30.15;;;8.52;;
33826;SDS011;20128;45.582;5.298;2022-10-31T02:04:58;19.00;;;9.25;;
33826;SDS011;20128;45.582;5.298;2022-10-31T02:07:28;22.85;;;8.90;;
33826;SDS011;20128;45.582;5.298;2022-10-31T02:10:02;34.13;;;9.30;;
33826;SDS011;20128;45.582;5.298;2022-10-31T02:12:29;26.77;;;10.32;;
33826;SDS011;20128;45.582;5.298;2022-10-31T02:14:56;39.00;;;10.02;;
33826;SDS011;20128;45.582;5.298;2022-10-31T02:17:22;23.98;;;9.20;;
33826;SDS011;20128;45.582;5.298;2022-10-31T02:22:26;33.42;;;9.50;;
33826;SDS011;20128;45.582;5.298;2022-10-31T02:30:03;31.15;;;9.45;;
33826;SDS011;20128;45.582;5.298;2022-10-31T02:32:52;30.95;;;8.77;;
33826;SDS011;20128;45.582;5.298;2022-10-31T02:36:02;29.02;;;9.52;;
33826;SDS011;20128;45.582;5.298;2022-10-31T02:43:54;25.60;;;9.15;;
33826;SDS011;20128;45.582;5.298;2022-10-31T02:46:27;31.70;;;10.38;;
33826;SDS011;20128;45.582;5.298;2022-10-31T02:49:02;32.50;;;9.85;;
33826;SDS011;20128;45.582;5.298;2022-10-31T02:51:35;29.25;;;9.57;;
33826;SDS011;20128;45.582;5.298;2022-10-31T02:54:01;42.90;;;9.80;;
33826;SDS011;20128;45.582;5.298;2022-10-31T02:56:27;32.90;;;9.57;;
33826;SDS011;20128;45.582;5.298;2022-10-31T02:58:53;27.50;;;9.95;;
33826;SDS011;20128;45.582;5.298;2022-10-31T03:04:21;27.38;;;9.50;;
33826;SDS011;20128;45.582;5.298;2022-10-31T03:07:08;26.60;;;10.27;;
33826;SDS011;20128;45.582;5.298;2022-10-31T03:15:37;30.77;;;9.45;;
33826;SDS011;20128;45.582;5.298;2022-10-31T03:21:01;33.58;;;10.20;;
33826;SDS011;20128;45.582;5.298;2022-10-31T03:23:34;29.48;;;9.88;;
33826;SDS011;20128;45.582;5.298;2022-10-31T03:26:02;35.03;;;11.07;;
33826;SDS011;20128;45.582;5.298;2022-10-31T03:28:31;36.10;;;10.77;;
33826;SDS011;20128;45.582;5.298;2022-10-31T03:31:03;32.17;;;10.82;;
33826;SDS011;20128;45.582;5.298;2022-10-31T03:33:32;23.73;;;9.68;;
33826;SDS011;20128;45.582;5.298;2022-10-31T03:36:01;29.13;;;9.52;;
33826;SDS011;20128;45.582;5.298;2022-10-31T03:38:29;24.60;;;9.68;;
33826;SDS011;20128;45.582;5.298;2022-10-31T03:40:57;33.05;;;10.32;;
33826;SDS011;20128;45.582;5.298;2022-10-31T03:43:28;29.23;;;9.63;;
33826;SDS011;20128;45.582;5.298;2022-10-31T03:45:57;30.48;;;9.63;;
33826;SDS011;20128;45.582;5.298;2022-10-31T03:48:23;32.50;;;9.80;;
33826;SDS011;20128;45.582;5.298;2022-10-31T03:53:22;22.48;;;10.70;;
33826;SDS011;20128;45.582;5.298;2022-10-31T03:55:52;27.50;;;11.18;;
33826;SDS011;20128;45.582;5.298;2022-10-31T03:58:55;36.28;;;10.73;;
33826;SDS011;20128;45.582;5.298;2022-10-31T04:01:26;34.75;;;10.95;;
33826;SDS011;20128;45.582;5.298;2022-10-31T04:03:56;26.45;;;10.25;;
33826;SDS011;20128;45.582;5.298;2022-10-31T04:06:23;30.52;;;10.13;;
33826;SDS011;20128;45.582;5.298;2022-10-31T04:09:00;29.50;;;11.35;;
33826;SDS011;20128;45.582;5.298;2022-10-31T04:11:29;31.17;;;10.23;;
33826;SDS011;20128;45.582;5.298;2022-10-31T04:14:01;31.17;;;10.23;;
33826;SDS011;20128;45.582;5.298;2022-10-31T04:16:29;42.08;;;9.32;;
33826;SDS011;20128;45.582;5.298;2022-10-31T04:18:55;25.20;;;10.27;;
33826;SDS011;20128;45.582;5.298;2022-10-31T04:21:26;32.28;;;9.77;;
33826;SDS011;20128;45.582;5.298;2022-10-31T04:23:53;25.70;;;9.88;;
33826;SDS011;20128;45.582;5.298;2022-10-31T04:26:19;32.95;;;10.02;;
33826;SDS011;20128;45.582;5.298;2022-10-31T04:28:45;27.33;;;10.52;;
33826;SDS011;20128;45.582;5.298;2022-10-31T04:31:11;32.58;;;10.52;;
33826;SDS011;20128;45.582;5.298;2022-10-31T04:33:37;28.35;;;9.88;;
33826;SDS011;20128;45.582;5.298;2022-10-31T04:36:03;29.48;;;10.70;;
33826;SDS011;20128;45.582;5.298;2022-10-31T04:38:32;31.30;;;9.88;;
33826;SDS011;20128;45.582;5.298;2022-10-31T04:40:58;36.88;;;9.90;;
33826;SDS011;20128;45.582;5.298;2022-10-31T04:43:24;37.67;;;10.68;;
33826;SDS011;20128;45.582;5.298;2022-10-31T04:45:50;25.58;;;9.32;;
33826;SDS011;20128;45.582;5.298;2022-10-31T04:48:15;19.50;;;9.65;;
33826;SDS011;20128;45.582;5.298;2022-10-31T04:50:42;26.80;;;9.18;;
33826;SDS011;20128;45.582;5.298;2022-10-31T04:53:08;25.90;;;9.43;;
33826;SDS011;20128;45.582;5.298;2022-10-31T04:55:34;26.85;;;9.00;;
33826;SDS011;20128;45.582;5.298;2022-10-31T04:58:00;20.42;;;9.15;;
33826;SDS011;20128;45.582;5.298;2022-10-31T05:00:26;39.95;;;10.77;;
33826;SDS011;20128;45.582;5.298;2022-10-31T05:02:56;27.77;;;8.68;;
33826;SDS011;20128;45.582;5.298;2022-10-31T05:05:24;26.20;;;8.73;;
33826;SDS011;20128;45.582;5.298;2022-10-31T05:07:52;26.30;;;9.23;;
33826;SDS011;20128;45.582;5.298;2022-10-31T05:10:20;30.30;;;9.98;;
33826;SDS011;20128;45.582;5.298;2022-10-31T05:12:47;24.27;;;9.90;;
33826;SDS011;20128;45.582;5.298;2022-10-31T05:15:18;24.10;;;8.43;;
33826;SDS011;20128;45.582;5.298;2022-10-31T05:17:46;27.20;;;8.95;;
33826;SDS011;20128;45.582;5.298;2022-10-31T05:20:12;21.48;;;9.70;;
33826;SDS011;20128;45.582;5.298;2022-10-31T05:22:43;33.72;;;8.98;;
33826;SDS011;20128;45.582;5.298;2022-10-31T05:25:09;28.13;;;9.32;;
33826;SDS011;20128;45.582;5.298;2022-10-31T05:27:38;23.10;;;9.18;;
33826;SDS011;20128;45.582;5.298;2022-10-31T05:30:05;28.88;;;11.07;;
33826;SDS011;20128;45.582;5.298;2022-10-31T05:32:36;31.73;;;10.32;;
33826;SDS011;20128;45.582;5.298;2022-10-31T05:35:06;31.25;;;10.10;;
33826;SDS011;20128;45.582;5.298;2022-10-31T05:37:33;38.20;;;11.00;;
33826;SDS011;20128;45.582;5.298;2022-10-31T05:40:00;28.48;;;9.38;;
33826;SDS011;20128;45.582;5.298;2022-10-31T05:42:27;30.30;;;9.73;;
33826;SDS011;20128;45.582;5.298;2022-10-31T05:44:52;33.42;;;9.45;;
33826;SDS011;20128;45.582;5.298;2022-10-31T05:47:18;33.90;;;10.05;;
33826;SDS011;20128;45.582;5.298;2022-10-31T05:49:44;38.13;;;10.32;;
33826;SDS011;20128;45.582;5.298;2022-10-31T05:52:09;30.77;;;9.45;;
33826;SDS011;20128;45.582;5.298;2022-10-31T05:54:35;33.92;;;10.82;;
33826;SDS011;20128;45.582;5.298;2022-10-31T05:57:00;24.90;;;9.75;;
33826;SDS011;20128;45.582;5.298;2022-10-31T05:59:26;33.17;;;11.27;;
33826;SDS011;20128;45.582;5.298;2022-10-31T06:01:52;36.03;;;10.98;;
33826;SDS011;20128;45.582;5.298;2022-10-31T06:04:17;28.00;;;11.45;;
33826;SDS011;20128;45.582;5.298;2022-10-31T06:06:43;34.40;;;11.75;;
33826;SDS011;20128;45.582;5.298;2022-10-31T06:09:08;28.05;;;10.95;;
33826;SDS011;20128;45.582;5.298;2022-10-31T06:11:34;31.48;;;10.13;;
33826;SDS011;20128;45.582;5.298;2022-10-31T06:14:00;39.55;;;11.85;;
33826;SDS011;20128;45.582;5.298;2022-10-31T06:16:25;38.80;;;12.05;;
33826;SDS011;20128;45.582;5.298;2022-10-31T06:18:53;27.77;;;10.57;;
33826;SDS011;20128;45.582;5.298;2022-10-31T06:21:19;32.38;;;10.95;;
33826;SDS011;20128;45.582;5.298;2022-10-31T06:23:45;23.50;;;10.77;;
33826;SDS011;20128;45.582;5.298;2022-10-31T06:26:10;33.35;;;10.77;;
33826;SDS011;20128;45.582;5.298;2022-10-31T06:28:36;31.48;;;10.65;;
33826;SDS011;20128;45.582;5.298;2022-10-31T06:31:01;32.55;;;12.25;;
33826;SDS011;20128;45.582;5.298;2022-10-31T06:33:27;23.90;;;10.95;;
33826;SDS011;20128;45.582;5.298;2022-10-31T06:35:53;29.65;;;9.75;;
33826;SDS011;20128;45.582;5.298;2022-10-31T06:38:18;28.10;;;9.57;;
33826;SDS011;20128;45.582;5.298;2022-10-31T06:40:44;29.30;;;10.95;;
33826;SDS011;20128;45.582;5.298;2022-10-31T06:43:10;26.55;;;10.15;;
33826;SDS011;20128;45.582;5.298;2022-10-31T06:45:36;33.92;;;10.32;;
33826;SDS011;20128;45.582;5.298;2022-10-31T06:48:08;36.95;;;11.02;;
33826;SDS011;20128;45.582;5.298;2022-10-31T06:50:52;31.55;;;10.77;;
33826;SDS011;20128;45.582;5.298;2022-10-31T06:53:34;32.30;;;10.52;;
33826;SDS011;20128;45.582;5.298;2022-10-31T06:55:59;27.00;;;10.85;;
33826;SDS011;20128;45.582;5.298;2022-10-31T06:58:25;40.08;;;11.25;;
33826;SDS011;20128;45.582;5.298;2022-10-31T07:01:00;24.42;;;9.20;;
33826;SDS011;20128;45.582;5.298;2022-10-31T07:03:28;32.70;;;10.60;;
33826;SDS011;20128;45.582;5.298;2022-10-31T07:05:54;36.08;;;11.10;;
33826;SDS011;20128;45.582;5.298;2022-10-31T07:08:24;32.10;;;10.43;;
33826;SDS011;20128;45.582;5.298;2022-10-31T07:10:55;27.10;;;10.00;;
33826;SDS011;20128;45.582;5.298;2022-10-31T07:13:24;33.25;;;11.07;;
33826;SDS011;20128;45.582;5.298;2022-10-31T07:15:58;30.70;;;9.50;;
33826;SDS011;20128;45.582;5.298;2022-10-31T07:18:25;35.20;;;10.05;;
33826;SDS011;20128;45.582;5.298;2022-10-31T07:20:57;24.70;;;10.00;;
33826;SDS011;20128;45.582;5.298;2022-10-31T07:23:27;34.17;;;11.38;;
33826;SDS011;20128;45.582;5.298;2022-10-31T07:25:56;25.75;;;10.02;;
33826;SDS011;20128;45.582;5.298;2022-10-31T07:28:29;36.60;;;11.60;;
33826;SDS011;20128;45.582;5.298;2022-10-31T07:30:57;32.45;;;10.25;;
33826;SDS011;20128;45.582;5.298;2022-10-31T07:33:26;23.40;;;9.13;;
33826;SDS011;20128;45.582;5.298;2022-10-31T07:36:01;34.28;;;10.07;;
33826;SDS011;20128;45.582;5.298;2022-10-31T07:38:54;27.73;;;10.32;;
33826;SDS011;20128;45.582;5.298;2022-10-31T07:41:50;25.90;;;11.02;;
33826;SDS011;20128;45.582;5.298;2022-10-31T07:44:23;28.65;;;10.65;;
33826;SDS011;20128;45.582;5.298;2022-10-31T07:46:49;31.83;;;12.02;;
33826;SDS011;20128;45.582;5.298;2022-10-31T07:49:23;38.65;;;11.38;;
33826;SDS011;20128;45.582;5.298;2022-10-31T07:51:51;26.65;;;9.93;;
33826;SDS011;20128;45.582;5.298;2022-10-31T07:54:17;31.92;;;9.52;;
33826;SDS011;20128;45.582;5.298;2022-10-31T07:56:42;21.77;;;10.05;;
33826;SDS011;20128;45.582;5.298;2022-10-31T07:59:08;32.03;;;10.93;;
33826;SDS011;20128;45.582;5.298;2022-10-31T08:01:34;31.83;;;10.15;;
33826;SDS011;20128;45.582;5.298;2022-10-31T08:03:59;25.75;;;9.98;;
33826;SDS011;20128;45.582;5.298;2022-10-31T08:06:25;24.10;;;10.00;;
33826;SDS011;20128;45.582;5.298;2022-10-31T08:08:53;29.77;;;11.13;;
33826;SDS011;20128;45.582;5.298;2022-10-31T08:11:19;36.13;;;9.32;;
33826;SDS011;20128;45.582;5.298;2022-10-31T08:13:46;25.27;;;9.23;;
33826;SDS011;20128;45.582;5.298;2022-10-31T08:16:11;30.42;;;9.95;;
33826;SDS011;20128;45.582;5.298;2022-10-31T08:18:37;27.80;;;9.50;;
33826;SDS011;20128;45.582;5.298;2022-10-31T08:21:03;33.92;;;9.85;;
33826;SDS011;20128;45.582;5.298;2022-10-31T08:23:28;26.23;;;9.32;;
33826;SDS011;20128;45.582;5.298;2022-10-31T08:25:54;30.15;;;10.70;;
33826;SDS011;20128;45.582;5.298;2022-10-31T08:28:20;28.42;;;9.38;;
33826;SDS011;20128;45.582;5.298;2022-10-31T08:30:45;37.92;;;9.60;;
33826;SDS011;20128;45.582;5.298;2022-10-31T08:33:13;30.48;;;9.80;;
33826;SDS011;20128;45.582;5.298;2022-10-31T08:35:41;28.52;;;9.93;;
33826;SDS011;20128;45.582;5.298;2022-10-31T08:38:08;35.17;;;9.73;;
33826;SDS011;20128;45.582;5.298;2022-10-31T08:40:35;29.05;;;9.63;;
33826;SDS011;20128;45.582;5.298;2022-10-31T08:45:29;30.77;;;8.80;;
33826;SDS011;20128;45.582;5.298;2022-10-31T08:48:03;29.02;;;10.13;;
33826;SDS011;20128;45.582;5.298;2022-10-31T08:50:31;30.45;;;9.32;;
33826;SDS011;20128;45.582;5.298;2022-10-31T08:55:47;35.65;;;9.93;;
33826;SDS011;20128;45.582;5.298;2022-10-31T08:58:14;32.00;;;8.50;;
33826;SDS011;20128;45.582;5.298;2022-10-31T09:00:41;27.08;;;8.75;;
33826;SDS011;20128;45.582;5.298;2022-10-31T09:03:11;29.98;;;8.35;;
33826;SDS011;20128;45.582;5.298;2022-10-31T09:05:39;33.00;;;9.38;;
33826;SDS011;20128;45.582;5.298;2022-10-31T09:08:05;34.60;;;9.57;;
33826;SDS011;20128;45.582;5.298;2022-10-31T09:10:33;25.45;;;8.65;;
33826;SDS011;20128;45.582;5.298;2022-10-31T09:13:04;33.40;;;10.43;;
33826;SDS011;20128;45.582;5.298;2022-10-31T09:15:32;31.63;;;8.30;;
33826;SDS011;20128;45.582;5.298;2022-10-31T09:18:03;38.63;;;9.15;;
33826;SDS011;20128;45.582;5.298;2022-10-31T09:20:30;26.33;;;8.05;;
33826;SDS011;20128;45.582;5.298;2022-10-31T09:22:57;42.00;;;10.35;;
33826;SDS011;20128;45.582;5.298;2022-10-31T09:25:24;43.35;;;13.45;;
33826;SDS011;20128;45.582;5.298;2022-10-31T09:27:51;23.85;;;7.90;;
33826;SDS011;20128;45.582;5.298;2022-10-31T09:30:24;30.10;;;9.38;;
33826;SDS011;20128;45.582;5.298;2022-10-31T09:33:00;25.83;;;8.70;;
33826;SDS011;20128;45.582;5.298;2022-10-31T09:35:31;30.05;;;8.50;;
33826;SDS011;20128;45.582;5.298;2022-10-31T09:37:58;27.83;;;8.45;;
33826;SDS011;20128;45.582;5.298;2022-10-31T09:51:29;29.42;;;8.13;;
33826;SDS011;20128;45.582;5.298;2022-10-31T09:56:34;25.65;;;8.23;;
33826;SDS011;20128;45.582;5.298;2022-10-31T09:59:01;30.10;;;7.45;;
33826;SDS011;20128;45.582;5.298;2022-10-31T10:04:17;25.58;;;6.97;;
33826;SDS011;20128;45.582;5.298;2022-10-31T10:06:58;37.13;;;8.65;;
33826;SDS011;20128;45.582;5.298;2022-10-31T10:09:31;30.60;;;7.80;;
33826;SDS011;20128;45.582;5.298;2022-10-31T10:17:38;22.98;;;6.93;;
33826;SDS011;20128;45.582;5.298;2022-10-31T10:20:16;26.00;;;6.45;;
33826;SDS011;20128;45.582;5.298;2022-10-31T10:26:07;24.88;;;6.80;;
33826;SDS011;20128;45.582;5.298;2022-10-31T10:28:38;31.58;;;7.68;;
33826;SDS011;20128;45.582;5.298;2022-10-31T10:31:14;26.05;;;6.05;;
33826;SDS011;20128;45.582;5.298;2022-10-31T10:33:59;24.33;;;6.30;;
33826;SDS011;20128;45.582;5.298;2022-10-31T10:39:02;27.48;;;6.40;;
33826;SDS011;20128;45.582;5.298;2022-10-31T10:41:33;19.87;;;6.50;;
33826;SDS011;20128;45.582;5.298;2022-10-31T10:43:59;22.05;;;6.45;;
33826;SDS011;20128;45.582;5.298;2022-10-31T10:54:56;23.48;;;6.15;;
33826;SDS011;20128;45.582;5.298;2022-10-31T11:00:26;31.48;;;5.50;;
33826;SDS011;20128;45.582;5.298;2022-10-31T11:02:57;22.50;;;5.85;;
33826;SDS011;20128;45.582;5.298;2022-10-31T11:05:28;33.80;;;6.53;;
33826;SDS011;20128;45.582;5.298;2022-10-31T11:08:01;32.47;;;6.53;;
33826;SDS011;20128;45.582;5.298;2022-10-31T11:10:27;25.98;;;5.70;;
33826;SDS011;20128;45.582;5.298;2022-10-31T11:15:50;23.63;;;5.18;;
33826;SDS011;20128;45.582;5.298;2022-10-31T11:18:21;17.95;;;5.60;;
33826;SDS011;20128;45.582;5.298;2022-10-31T11:20:54;26.15;;;5.07;;
33826;SDS011;20128;45.582;5.298;2022-10-31T11:23:23;28.92;;;6.95;;
33826;SDS011;20128;45.582;5.298;2022-10-31T11:25:51;25.10;;;6.18;;
33826;SDS011;20128;45.582;5.298;2022-10-31T11:28:28;31.85;;;5.45;;
33826;SDS011;20128;45.582;5.298;2022-10-31T11:31:00;26.63;;;5.10;;
33826;SDS011;20128;45.582;5.298;2022-10-31T11:33:34;18.70;;;5.72;;
33826;SDS011;20128;45.582;5.298;2022-10-31T11:36:32;21.73;;;4.40;;
33826;SDS011;20128;45.582;5.298;2022-10-31T11:38:58;34.13;;;6.22;;
33826;SDS011;20128;45.582;5.298;2022-10-31T11:41:33;25.92;;;5.55;;
33826;SDS011;20128;45.582;5.298;2022-10-31T11:46:43;32.38;;;6.88;;
33826;SDS011;20128;45.582;5.298;2022-10-31T11:49:15;21.77;;;6.68;;
33826;SDS011;20128;45.582;5.298;2022-10-31T11:51:51;27.58;;;5.18;;
33826;SDS011;20128;45.582;5.298;2022-10-31T11:54:30;13.98;;;4.82;;
33826;SDS011;20128;45.582;5.298;2022-10-31T11:57:20;24.10;;;5.13;;
33826;SDS011;20128;45.582;5.298;2022-10-31T11:59:55;21.63;;;5.60;;
33826;SDS011;20128;45.582;5.298;2022-10-31T12:02:23;33.53;;;7.13;;
33826;SDS011;20128;45.582;5.298;2022-10-31T12:04:58;26.98;;;5.93;;
33826;SDS011;20128;45.582;5.298;2022-10-31T12:07:58;23.98;;;5.70;;
33826;SDS011;20128;45.582;5.298;2022-10-31T12:10:27;26.55;;;6.70;;
33826;SDS011;20128;45.582;5.298;2022-10-31T12:15:53;29.02;;;5.85;;
33826;SDS011;20128;45.582;5.298;2022-10-31T12:32:30;30.70;;;5.82;;
33826;SDS011;20128;45.582;5.298;2022-10-31T12:52:01;20.83;;;5.17;;
33826;SDS011;20128;45.582;5.298;2022-10-31T12:59:50;21.35;;;5.43;;
33826;SDS011;20128;45.582;5.298;2022-10-31T13:02:26;21.23;;;5.90;;
33826;SDS011;20128;45.582;5.298;2022-10-31T13:05:17;21.63;;;6.05;;
33826;SDS011;20128;45.582;5.298;2022-10-31T13:08:05;29.20;;;6.95;;
33826;SDS011;20128;45.582;5.298;2022-10-31T13:11:08;18.80;;;6.43;;
33826;SDS011;20128;45.582;5.298;2022-10-31T13:13:40;17.80;;;4.38;;
33826;SDS011;20128;45.582;5.298;2022-10-31T13:16:16;24.08;;;5.32;;
33826;SDS011;20128;45.582;5.298;2022-10-31T13:21:27;16.88;;;5.43;;
33826;SDS011;20128;45.582;5.298;2022-10-31T13:23:54;23.17;;;4.88;;
33826;SDS011;20128;45.582;5.298;2022-10-31T13:31:48;31.77;;;6.05;;
33826;SDS011;20128;45.582;5.298;2022-10-31T13:34:28;21.00;;;5.20;;
33826;SDS011;20128;45.582;5.298;2022-10-31T13:37:16;20.60;;;4.53;;
33826;SDS011;20128;45.582;5.298;2022-10-31T13:45:22;17.83;;;4.78;;
33826;SDS011;20128;45.582;5.298;2022-10-31T13:48:00;21.65;;;4.22;;
33826;SDS011;20128;45.582;5.298;2022-10-31T13:50:43;22.92;;;4.32;;
33826;SDS011;20128;45.582;5.298;2022-10-31T13:53:22;18.15;;;4.03;;
33826;SDS011;20128;45.582;5.298;2022-10-31T14:01:45;25.75;;;4.18;;
33826;SDS011;20128;45.582;5.298;2022-10-31T14:06:52;24.77;;;4.35;;
33826;SDS011;20128;45.582;5.298;2022-10-31T14:09:32;18.73;;;4.03;;
33826;SDS011;20128;45.582;5.298;2022-10-31T14:12:03;18.52;;;5.43;;
33826;SDS011;20128;45.582;5.298;2022-10-31T14:14:47;24.67;;;4.70;;
33826;SDS011;20128;45.582;5.298;2022-10-31T14:17:20;20.30;;;4.13;;
33826;SDS011;20128;45.582;5.298;2022-10-31T14:19:59;16.20;;;3.38;;
33826;SDS011;20128;45.582;5.298;2022-10-31T14:22:30;24.10;;;4.45;;
33826;SDS011;20128;45.582;5.298;2022-10-31T14:24:57;29.23;;;5.28;;
33826;SDS011;20128;45.582;5.298;2022-10-31T14:29:51;23.38;;;4.75;;
33826;SDS011;20128;45.582;5.298;2022-10-31T14:32:23;19.23;;;4.57;;
33826;SDS011;20128;45.582;5.298;2022-10-31T14:40:20;16.38;;;4.80;;
33826;SDS011;20128;45.582;5.298;2022-10-31T14:51:20;18.30;;;4.57;;
33826;SDS011;20128;45.582;5.298;2022-10-31T14:53:54;16.95;;;3.88;;
33826;SDS011;20128;45.582;5.298;2022-10-31T14:56:27;19.90;;;4.05;;
33826;SDS011;20128;45.582;5.298;2022-10-31T14:58:56;24.83;;;4.32;;
33826;SDS011;20128;45.582;5.298;2022-10-31T15:01:29;19.42;;;3.70;;
33826;SDS011;20128;45.582;5.298;2022-10-31T15:03:58;18.00;;;4.20;;
33826;SDS011;20128;45.582;5.298;2022-10-31T15:06:29;16.85;;;3.92;;
33826;SDS011;20128;45.582;5.298;2022-10-31T15:09:03;29.17;;;4.70;;
33826;SDS011;20128;45.582;5.298;2022-10-31T15:11:28;19.42;;;5.20;;
33826;SDS011;20128;45.582;5.298;2022-10-31T15:14:17;10.65;;;3.50;;
33826;SDS011;20128;45.582;5.298;2022-10-31T15:16:51;20.60;;;4.90;;
33826;SDS011;20128;45.582;5.298;2022-10-31T15:19:20;21.33;;;3.90;;
33826;SDS011;20128;45.582;5.298;2022-10-31T15:21:51;17.00;;;4.10;;
33826;SDS011;20128;45.582;5.298;2022-10-31T15:24:18;23.15;;;3.72;;
33826;SDS011;20128;45.582;5.298;2022-10-31T15:26:47;12.02;;;3.33;;
33826;SDS011;20128;45.582;5.298;2022-10-31T15:31:57;13.35;;;4.38;;
33826;SDS011;20128;45.582;5.298;2022-10-31T15:34:29;14.38;;;3.88;;
33826;SDS011;20128;45.582;5.298;2022-10-31T15:37:03;17.88;;;4.22;;
33826;SDS011;20128;45.582;5.298;2022-10-31T15:39:29;17.38;;;5.05;;
33826;SDS011;20128;45.582;5.298;2022-10-31T15:41:56;14.98;;;3.47;;
33826;SDS011;20128;45.582;5.298;2022-10-31T15:44:44;22.15;;;5.03;;
33826;SDS011;20128;45.582;5.298;2022-10-31T15:47:15;21.75;;;4.72;;
33826;SDS011;20128;45.582;5.298;2022-10-31T15:55:16;14.60;;;3.60;;
33826;SDS011;20128;45.582;5.298;2022-10-31T15:57:47;19.00;;;5.47;;
33826;SDS011;20128;45.582;5.298;2022-10-31T16:03:00;17.60;;;3.75;;
33826;SDS011;20128;45.582;5.298;2022-10-31T16:05:44;22.08;;;4.65;;
33826;SDS011;20128;45.582;5.298;2022-10-31T16:11:02;19.23;;;4.30;;
33826;SDS011;20128;45.582;5.298;2022-10-31T16:16:44;16.20;;;4.07;;
33826;SDS011;20128;45.582;5.298;2022-10-31T16:19:15;18.52;;;4.32;;
33826;SDS011;20128;45.582;5.298;2022-10-31T16:21:47;23.02;;;6.05;;
33826;SDS011;20128;45.582;5.298;2022-10-31T16:24:22;46.85;;;16.73;;
33826;SDS011;20128;45.582;5.298;2022-10-31T16:27:04;34.85;;;7.60;;
33826;SDS011;20128;45.582;5.298;2022-10-31T16:35:18;25.50;;;9.32;;
33826;SDS011;20128;45.582;5.298;2022-10-31T16:37:50;33.85;;;10.80;;
33826;SDS011;20128;45.582;5.298;2022-10-31T16:40:16;23.75;;;7.15;;
33826;SDS011;20128;45.582;5.298;2022-10-31T16:42:42;22.42;;;6.00;;
33826;SDS011;20128;45.582;5.298;2022-10-31T16:45:23;24.80;;;5.88;;
33826;SDS011;20128;45.582;5.298;2022-10-31T16:47:50;25.25;;;5.95;;
33826;SDS011;20128;45.582;5.298;2022-10-31T16:50:20;22.95;;;5.68;;
33826;SDS011;20128;45.582;5.298;2022-10-31T16:52:48;20.52;;;5.60;;
33826;SDS011;20128;45.582;5.298;2022-10-31T16:55:14;29.35;;;5.30;;
33826;SDS011;20128;45.582;5.298;2022-10-31T16:57:41;19.85;;;6.53;;
33826;SDS011;20128;45.582;5.298;2022-10-31T17:00:16;27.75;;;4.90;;
33826;SDS011;20128;45.582;5.298;2022-10-31T17:02:47;20.17;;;4.60;;
33826;SDS011;20128;45.582;5.298;2022-10-31T17:05:16;21.55;;;4.10;;
33826;SDS011;20128;45.582;5.298;2022-10-31T17:07:43;15.55;;;4.57;;
33826;SDS011;20128;45.582;5.298;2022-10-31T17:10:09;16.80;;;4.75;;
33826;SDS011;20128;45.582;5.298;2022-10-31T17:12:37;20.27;;;4.32;;
33826;SDS011;20128;45.582;5.298;2022-10-31T17:15:04;20.63;;;4.70;;
33826;SDS011;20128;45.582;5.298;2022-10-31T17:17:34;16.33;;;4.28;;
33826;SDS011;20128;45.582;5.298;2022-10-31T17:20:00;18.40;;;5.07;;
33826;SDS011;20128;45.582;5.298;2022-10-31T17:22:26;23.25;;;5.20;;
33826;SDS011;20128;45.582;5.298;2022-10-31T17:24:52;18.63;;;4.57;;
33826;SDS011;20128;45.582;5.298;2022-10-31T17:27:17;18.42;;;4.75;;
33826;SDS011;20128;45.582;5.298;2022-10-31T17:29:43;19.55;;;5.80;;
33826;SDS011;20128;45.582;5.298;2022-10-31T17:32:09;23.13;;;4.85;;
33826;SDS011;20128;45.582;5.298;2022-10-31T17:34:34;18.25;;;4.40;;
33826;SDS011;20128;45.582;5.298;2022-10-31T17:37:00;20.35;;;4.95;;
33826;SDS011;20128;45.582;5.298;2022-10-31T17:39:26;20.23;;;3.92;;
33826;SDS011;20128;45.582;5.298;2022-10-31T17:41:51;24.80;;;4.50;;
33826;SDS011;20128;45.582;5.298;2022-10-31T17:44:17;21.15;;;4.90;;
33826;SDS011;20128;45.582;5.298;2022-10-31T17:46:43;21.98;;;4.80;;
33826;SDS011;20128;45.582;5.298;2022-10-31T17:49:12;18.48;;;4.93;;